createdAt,value
2018-11-07T00:01:48.732Z,17.83
2018-11-07T00:04:17.235Z,22.80
2018-11-07T00:06:45.735Z,12.40
2018-11-07T00:09:14.289Z,14.30
2018-11-07T00:11:42.813Z,17.30
2018-11-07T00:14:11.353Z,21.43
2018-11-07T00:16:39.891Z,20.40
2018-11-07T00:19:08.392Z,15.53
2018-11-07T00:21:36.912Z,15.57
2018-11-07T00:24:05.404Z,15.67
2018-11-07T00:26:33.966Z,13.77
2018-11-07T00:29:02.394Z,21.97
2018-11-07T00:31:30.944Z,15.53
2018-11-07T00:33:59.443Z,12.03
2018-11-07T00:36:27.991Z,12.23
2018-11-07T00:38:56.495Z,17.83
2018-11-07T00:41:25.073Z,16.50
2018-11-07T00:43:53.563Z,16.17
2018-11-07T00:46:22.073Z,12.87
2018-11-07T00:48:50.612Z,20.47
2018-11-07T00:51:19.142Z,15.70
2018-11-07T00:53:47.709Z,10.30
2018-11-07T00:56:16.258Z,16.20
2018-11-07T00:58:44.778Z,18.37
2018-11-07T01:01:13.288Z,11.63
2018-11-07T01:03:41.805Z,16.20
2018-11-07T01:06:10.348Z,12.00
2018-11-07T01:08:39.354Z,13.53
2018-11-07T01:11:07.888Z,10.23
2018-11-07T01:13:36.979Z,16.23
2018-11-07T01:16:05.539Z,10.47
2018-11-07T01:18:34.104Z,11.17
2018-11-07T01:21:02.623Z,11.17
2018-11-07T01:23:31.137Z,15.00
2018-11-07T01:25:59.672Z,16.50
2018-11-07T01:28:28.152Z,11.23
2018-11-07T01:30:56.692Z,9.50
2018-11-07T01:33:25.189Z,9.10
2018-11-07T01:35:53.688Z,10.97
2018-11-07T01:38:22.204Z,13.67
2018-11-07T01:40:50.736Z,15.00
2018-11-07T01:43:19.225Z,14.27
2018-11-07T01:45:47.732Z,9.97
2018-11-07T01:48:16.248Z,15.97
2018-11-07T01:50:44.763Z,13.80
2018-11-07T01:53:13.269Z,16.67
2018-11-07T01:55:41.825Z,9.73
2018-11-07T01:58:10.336Z,12.30
2018-11-07T02:00:38.911Z,15.60
2018-11-07T02:03:07.408Z,8.07
2018-11-07T02:05:35.905Z,8.47
2018-11-07T02:08:04.652Z,11.37
2018-11-07T02:10:33.197Z,8.87
2018-11-07T02:13:01.711Z,13.77
2018-11-07T02:15:30.248Z,10.80
2018-11-07T02:17:58.726Z,13.07
2018-11-07T02:20:27.264Z,7.80
2018-11-07T02:22:55.836Z,10.87
2018-11-07T02:25:24.352Z,9.33
2018-11-07T02:27:52.862Z,10.10
2018-11-07T02:30:21.385Z,8.47
2018-11-07T02:32:49.880Z,8.93
2018-11-07T02:35:18.423Z,14.87
2018-11-07T02:37:46.926Z,7.93
2018-11-07T02:40:15.453Z,11.13
2018-11-07T02:42:43.966Z,9.63
2018-11-07T02:45:12.486Z,13.43
2018-11-07T02:47:41.007Z,10.63
2018-11-07T02:50:10.288Z,10.33
2018-11-07T02:52:38.996Z,12.97
2018-11-07T02:55:07.768Z,13.60
2018-11-07T02:57:36.410Z,11.63
2018-11-07T03:00:06.148Z,12.13
2018-11-07T03:02:34.663Z,12.17
2018-11-07T03:05:03.909Z,10.37
2018-11-07T03:07:32.472Z,11.97
2018-11-07T03:10:01.042Z,12.87
2018-11-07T03:12:29.561Z,10.07
2018-11-07T03:14:58.043Z,11.83
2018-11-07T03:17:26.545Z,14.17
2018-11-07T03:19:55.052Z,10.70
2018-11-07T03:22:23.652Z,15.67
2018-11-07T03:24:52.162Z,13.13
2018-11-07T03:27:20.674Z,13.83
2018-11-07T03:29:49.175Z,10.30
2018-11-07T03:32:17.660Z,12.10
2018-11-07T03:34:46.168Z,12.27
2018-11-07T03:37:14.707Z,12.13
2018-11-07T03:39:43.318Z,12.73
2018-11-07T03:42:11.818Z,14.77
2018-11-07T03:44:40.316Z,17.67
2018-11-07T03:47:08.857Z,12.90
2018-11-07T03:49:37.363Z,10.37
2018-11-07T03:52:05.881Z,11.73
2018-11-07T03:54:34.364Z,15.13
2018-11-07T03:57:03.670Z,10.20
2018-11-07T03:59:32.165Z,10.83
2018-11-07T04:02:00.684Z,9.17
2018-11-07T04:04:29.235Z,8.03
2018-11-07T04:06:57.772Z,9.30
2018-11-07T04:09:26.290Z,10.10
2018-11-07T04:11:54.819Z,10.73
2018-11-07T04:14:23.309Z,11.97
2018-11-07T04:16:51.848Z,11.10
2018-11-07T04:19:20.379Z,10.13
2018-11-07T04:21:48.903Z,10.03
2018-11-07T04:24:17.375Z,9.17
2018-11-07T04:26:46.928Z,7.83
2018-11-07T04:29:15.446Z,8.73
2018-11-07T04:31:43.943Z,8.17
2018-11-07T04:34:12.472Z,12.73
2018-11-07T04:36:40.995Z,12.23
2018-11-07T04:39:09.555Z,11.87
2018-11-07T04:41:38.059Z,12.07
2018-11-07T04:44:06.589Z,10.83
2018-11-07T04:46:35.083Z,10.53
2018-11-07T04:49:04.314Z,10.43
2018-11-07T04:51:32.821Z,10.63
2018-11-07T04:54:01.323Z,14.10
2018-11-07T04:56:29.936Z,11.37
2018-11-07T04:58:58.492Z,8.93
2018-11-07T05:01:27.053Z,9.60
2018-11-07T05:03:55.576Z,9.03
2018-11-07T05:06:24.061Z,11.97
2018-11-07T05:08:52.708Z,12.43
2018-11-07T05:11:21.228Z,12.87
2018-11-07T05:13:49.735Z,12.50
2018-11-07T05:16:18.240Z,13.67
2018-11-07T05:18:46.752Z,10.13
2018-11-07T05:21:15.256Z,9.50
2018-11-07T05:23:43.792Z,10.17
2018-11-07T05:26:12.357Z,11.13
2018-11-07T05:28:40.816Z,10.73
2018-11-07T05:31:09.314Z,6.97
2018-11-07T05:33:37.842Z,6.30
2018-11-07T05:36:06.768Z,11.43
2018-11-07T05:38:35.495Z,11.07
2018-11-07T05:41:04.722Z,9.90
2018-11-07T05:43:33.203Z,12.17
2018-11-07T05:46:01.728Z,11.23
2018-11-07T05:48:30.805Z,8.40
2018-11-07T05:50:59.392Z,6.17
2018-11-07T05:53:28.610Z,15.33
2018-11-07T05:55:57.918Z,10.87
2018-11-07T05:58:27.407Z,11.93
2018-11-07T06:00:56.006Z,9.00
2018-11-07T06:03:24.536Z,11.10
2018-11-07T06:05:53.635Z,12.47
2018-11-07T06:08:22.237Z,10.83
2018-11-07T06:10:50.759Z,9.93
2018-11-07T06:13:19.240Z,9.80
2018-11-07T06:15:47.747Z,8.10
2018-11-07T06:18:16.360Z,13.97
2018-11-07T06:20:44.881Z,8.10
2018-11-07T06:23:13.961Z,9.10
2018-11-07T06:25:42.446Z,9.53
2018-11-07T06:28:11.039Z,11.70
2018-11-07T06:30:39.528Z,9.90
2018-11-07T06:33:08.013Z,11.03
2018-11-07T06:35:36.537Z,14.63
2018-11-07T06:38:05.024Z,15.53
2018-11-07T06:40:33.611Z,13.50
2018-11-07T06:43:02.151Z,9.03
2018-11-07T06:45:30.734Z,10.60
2018-11-07T06:47:59.434Z,11.00
2018-11-07T06:50:28.944Z,9.13
2018-11-07T06:52:57.416Z,10.40
2018-11-07T06:55:25.944Z,10.23
2018-11-07T06:57:55.532Z,21.17
2018-11-07T07:00:24.892Z,8.30
2018-11-07T07:02:53.958Z,13.87
2018-11-07T07:05:22.577Z,16.07
2018-11-07T07:07:51.087Z,11.23
2018-11-07T07:10:19.590Z,13.50
2018-11-07T07:12:48.118Z,16.20
2018-11-07T07:15:16.718Z,9.97
2018-11-07T07:17:45.338Z,12.43
2018-11-07T07:20:15.587Z,10.17
2018-11-07T07:22:44.753Z,12.53
2018-11-07T07:25:13.735Z,14.20
2018-11-07T07:27:43.118Z,10.50
2018-11-07T07:30:15.090Z,15.10
2018-11-07T07:32:44.547Z,12.87
2018-11-07T07:35:13.822Z,10.10
2018-11-07T07:37:42.348Z,13.63
2018-11-07T07:40:11.445Z,12.63
2018-11-07T07:42:40.864Z,11.53
2018-11-07T07:45:11.260Z,10.50
2018-11-07T07:47:40.377Z,12.10
2018-11-07T07:50:10.071Z,10.27
2018-11-07T07:52:38.850Z,12.37
2018-11-07T07:55:08.035Z,11.67
2018-11-07T07:57:37.183Z,13.27
2018-11-07T08:00:10.916Z,10.27
2018-11-07T08:02:40.063Z,12.13
2018-11-07T08:05:08.635Z,12.90
2018-11-07T08:07:37.186Z,9.47
2018-11-07T08:10:06.586Z,10.73
2018-11-07T08:12:35.071Z,8.60
2018-11-07T08:15:04.115Z,12.30
2018-11-07T08:17:32.784Z,12.13
2018-11-07T08:20:02.569Z,19.60
2018-11-07T08:22:31.160Z,13.27
2018-11-07T08:24:59.825Z,12.90
2018-11-07T08:27:28.356Z,13.90
2018-11-07T08:29:56.868Z,13.23
2018-11-07T08:32:25.466Z,13.57
2018-11-07T08:34:53.992Z,17.65
2018-11-07T08:37:25.151Z,13.13
2018-11-07T08:39:53.734Z,8.63
2018-11-07T08:42:22.287Z,10.80
2018-11-07T08:44:50.824Z,18.83
2018-11-07T08:47:19.373Z,11.00
2018-11-07T08:49:47.922Z,9.50
2018-11-07T08:52:16.511Z,7.53
2018-11-07T08:54:45.126Z,9.53
2018-11-07T08:57:13.636Z,11.03
2018-11-07T08:59:42.180Z,7.00
2018-11-07T09:02:38.591Z,7.10
2018-11-07T09:05:07.209Z,8.40
2018-11-07T09:07:36.037Z,8.57
2018-11-07T09:10:05.680Z,8.33
2018-11-07T09:12:34.223Z,7.37
2018-11-07T09:15:02.761Z,7.40
2018-11-07T09:17:31.323Z,7.53
2018-11-07T09:19:59.915Z,6.17
2018-11-07T09:22:28.396Z,6.90
2018-11-07T09:24:56.900Z,6.33
2018-11-07T09:27:25.451Z,8.00
2018-11-07T09:29:54.007Z,6.03
2018-11-07T09:32:22.539Z,6.40
2018-11-07T09:34:51.153Z,5.93
2018-11-07T09:37:19.698Z,7.67
2018-11-07T09:39:48.277Z,5.93
2018-11-07T09:42:16.784Z,5.63
2018-11-07T09:44:45.418Z,4.80
2018-11-07T09:47:13.998Z,5.10
2018-11-07T09:49:42.535Z,6.10
2018-11-07T09:52:11.081Z,5.43
2018-11-07T09:54:39.646Z,4.90
2018-11-07T09:57:08.172Z,6.03
2018-11-07T09:59:36.858Z,4.67
2018-11-07T10:02:05.452Z,5.73
2018-11-07T10:04:34.014Z,6.20
2018-11-07T10:07:02.560Z,7.47
2018-11-07T10:09:31.089Z,4.33
2018-11-07T10:12:00.422Z,4.73
2018-11-07T10:14:29.219Z,4.80
2018-11-07T10:16:57.755Z,8.50
2018-11-07T10:19:26.324Z,7.67
2018-11-07T10:21:54.836Z,4.43
2018-11-07T10:24:23.328Z,5.10
2018-11-07T10:26:51.960Z,5.33
2018-11-07T10:29:20.717Z,5.47
2018-11-07T10:31:48.878Z,5.00
2018-11-07T10:34:17.396Z,7.27
2018-11-07T10:36:45.905Z,6.63
2018-11-07T10:39:14.419Z,7.57
2018-11-07T10:41:42.945Z,3.73
2018-11-07T10:44:11.584Z,5.53
2018-11-07T10:46:40.047Z,3.30
2018-11-07T10:49:08.740Z,5.23
2018-11-07T10:51:37.266Z,4.17
2018-11-07T10:54:05.806Z,4.27
2018-11-07T10:56:34.310Z,4.60
2018-11-07T10:59:02.954Z,4.23
2018-11-07T11:01:36.927Z,3.17
2018-11-07T11:04:05.494Z,3.63
2018-11-07T11:06:34.245Z,2.50
2018-11-07T11:09:02.833Z,4.57
2018-11-07T11:11:31.372Z,4.13
2018-11-07T11:14:00.028Z,4.63
2018-11-07T11:16:28.546Z,8.53
2018-11-07T11:18:57.093Z,4.43
2018-11-07T11:21:27.013Z,2.20
2018-11-07T11:23:55.581Z,2.73
2018-11-07T11:26:24.104Z,5.43
2018-11-07T11:28:52.617Z,2.40
2018-11-07T11:31:21.181Z,5.57
2018-11-07T11:33:49.802Z,3.83
2018-11-07T11:36:18.319Z,2.90
2018-11-07T11:38:46.851Z,3.67
2018-11-07T11:41:15.402Z,3.67
2018-11-07T11:43:43.907Z,5.43
2018-11-07T11:46:12.455Z,5.70
2018-11-07T11:48:41.048Z,2.03
2018-11-07T11:51:09.579Z,4.23
2018-11-07T11:53:38.127Z,4.67
2018-11-07T11:56:06.987Z,2.27
2018-11-07T11:58:35.601Z,3.73
2018-11-07T12:01:04.142Z,4.40
2018-11-07T12:03:33.263Z,4.20
2018-11-07T12:06:02.749Z,2.13
2018-11-07T12:08:31.335Z,2.90
2018-11-07T12:10:59.801Z,4.20
2018-11-07T12:13:28.444Z,4.37
2018-11-07T12:15:56.929Z,2.70
2018-11-07T12:18:25.440Z,3.77
2018-11-07T12:20:54.010Z,6.27
2018-11-07T12:23:22.546Z,2.30
2018-11-07T12:25:51.083Z,1.97
2018-11-07T12:28:19.608Z,2.33
2018-11-07T12:30:48.148Z,5.97
2018-11-07T12:33:16.701Z,3.10
2018-11-07T12:35:45.239Z,2.33
2018-11-07T12:38:13.790Z,1.87
2018-11-07T12:40:42.342Z,3.07
2018-11-07T12:43:10.889Z,2.47
2018-11-07T12:45:39.412Z,2.30
2018-11-07T12:48:07.972Z,3.33
2018-11-07T12:50:36.483Z,3.23
2018-11-07T12:53:05.154Z,3.37
2018-11-07T12:55:33.780Z,2.10
2018-11-07T12:58:02.545Z,3.70
2018-11-07T13:00:31.048Z,2.23
2018-11-07T13:02:59.650Z,1.93
2018-11-07T13:05:28.109Z,2.43
2018-11-07T13:07:57.555Z,2.37
2018-11-07T13:10:26.116Z,4.27
2018-11-07T13:12:54.858Z,1.63
2018-11-07T13:15:23.400Z,3.33
2018-11-07T13:17:52.339Z,1.93
2018-11-07T13:20:22.495Z,4.33
2018-11-07T13:22:52.096Z,2.07
2018-11-07T13:25:21.014Z,2.07
2018-11-07T13:27:49.577Z,2.33
2018-11-07T13:30:19.377Z,2.87
2018-11-07T13:32:48.073Z,1.83
2018-11-07T13:35:17.270Z,2.67
2018-11-07T13:37:46.790Z,4.23
2018-11-07T13:40:19.560Z,6.53
2018-11-07T13:42:48.148Z,2.20
2018-11-07T13:45:17.962Z,3.27
2018-11-07T13:47:47.490Z,1.70
2018-11-07T13:50:16.469Z,1.90
2018-11-07T13:52:45.031Z,1.80
2018-11-07T13:55:14.281Z,1.67
2018-11-07T13:57:43.176Z,1.50
2018-11-07T14:00:15.171Z,2.17
2018-11-07T14:02:44.080Z,1.40
2018-11-07T14:05:12.995Z,1.57
2018-11-07T14:07:41.548Z,1.30
2018-11-07T14:10:12.952Z,3.20
2018-11-07T14:12:41.749Z,2.27
2018-11-07T14:15:12.199Z,1.00
2018-11-07T14:17:40.956Z,4.50
2018-11-07T14:20:09.633Z,2.13
2018-11-07T14:22:39.393Z,1.10
2018-11-07T14:25:08.400Z,1.20
2018-11-07T14:27:37.008Z,3.33
2018-11-07T14:30:07.859Z,1.30
2018-11-07T14:32:36.447Z,4.53
2018-11-07T14:35:05.070Z,2.43
2018-11-07T14:37:33.599Z,1.30
2018-11-07T14:40:02.146Z,3.00
2018-11-07T14:42:30.696Z,1.33
2018-11-07T14:44:59.289Z,1.60
2018-11-07T14:47:27.856Z,0.93
2018-11-07T14:49:56.404Z,1.37
2018-11-07T14:52:25.012Z,1.17
2018-11-07T14:54:53.612Z,4.47
2018-11-07T14:57:22.205Z,2.63
2018-11-07T14:59:50.759Z,2.37
2018-11-07T15:02:19.304Z,3.57
2018-11-07T15:04:47.873Z,1.27
2018-11-07T15:07:16.533Z,2.50
2018-11-07T15:09:45.178Z,0.83
2018-11-07T15:12:13.771Z,2.85
2018-11-07T15:14:42.296Z,2.50
2018-11-07T15:17:10.875Z,1.33
2018-11-07T15:19:39.422Z,1.57
2018-11-07T15:22:07.884Z,1.90
2018-11-07T15:24:36.461Z,2.93
2018-11-07T15:27:05.267Z,1.37
2018-11-07T15:29:33.776Z,1.33
2018-11-07T15:32:02.297Z,1.70
2018-11-07T15:34:30.815Z,3.23
2018-11-07T15:36:59.405Z,3.33
2018-11-07T15:39:27.920Z,18.73
2018-11-07T15:41:56.416Z,8.17
2018-11-07T15:44:24.975Z,2.40
2018-11-07T15:46:53.468Z,2.17
2018-11-07T15:49:21.985Z,1.33
2018-11-07T15:51:55.092Z,4.13
2018-11-07T15:54:23.684Z,1.47
2018-11-07T15:56:52.540Z,3.33
2018-11-07T15:59:21.312Z,7.00
2018-11-07T16:01:49.835Z,2.43
2018-11-07T16:04:18.359Z,3.03
2018-11-07T16:06:46.883Z,2.20
2018-11-07T16:09:15.412Z,2.37
2018-11-07T16:11:43.955Z,1.50
2018-11-07T16:14:12.470Z,1.03
2018-11-07T16:16:40.960Z,5.23
2018-11-07T16:19:09.538Z,2.97
2018-11-07T16:21:41.557Z,2.30
2018-11-07T16:24:10.162Z,2.93
2018-11-07T16:26:38.545Z,2.47
2018-11-07T16:29:07.051Z,1.47
2018-11-07T16:31:35.606Z,3.40
2018-11-07T16:34:04.252Z,2.87
2018-11-07T16:36:32.831Z,3.43
2018-11-07T16:39:01.389Z,2.00
2018-11-07T16:41:30.025Z,3.00
2018-11-07T16:43:58.373Z,2.50
2018-11-07T16:46:26.953Z,1.27
2018-11-07T16:48:55.356Z,3.43
2018-11-07T16:51:23.847Z,2.10
2018-11-07T16:53:52.370Z,1.10
2018-11-07T16:56:20.915Z,2.83
2018-11-07T16:58:49.428Z,5.00
2018-11-07T17:01:17.920Z,4.30
2018-11-07T17:03:46.441Z,1.93
2018-11-07T17:06:15.001Z,1.42
2018-11-07T17:08:43.558Z,2.93
2018-11-07T17:11:12.057Z,2.73
2018-11-07T17:13:40.547Z,3.23
2018-11-07T17:16:09.088Z,4.87
2018-11-07T17:18:37.635Z,1.83
2018-11-07T17:21:06.204Z,5.10
2018-11-07T17:23:34.721Z,2.10
2018-11-07T17:26:04.000Z,1.20
2018-11-07T17:28:32.537Z,1.97
2018-11-07T17:31:01.064Z,3.70
2018-11-07T17:33:29.589Z,4.87
2018-11-07T17:35:58.167Z,2.30
2018-11-07T17:38:26.781Z,2.70
2018-11-07T17:40:55.288Z,1.10
2018-11-07T17:43:23.872Z,1.67
2018-11-07T17:45:52.427Z,1.17
2018-11-07T17:48:21.136Z,1.00
2018-11-07T17:50:49.439Z,1.47
2018-11-07T17:53:17.925Z,1.43
2018-11-07T17:55:46.428Z,1.20
2018-11-07T17:58:14.992Z,1.33
2018-11-07T18:00:43.579Z,2.03
2018-11-07T18:03:12.157Z,1.20
2018-11-07T18:05:40.662Z,1.77
2018-11-07T18:08:09.189Z,4.93
2018-11-07T18:10:37.696Z,1.83
2018-11-07T18:13:06.272Z,1.67
2018-11-07T18:15:34.804Z,3.30
2018-11-07T18:18:03.318Z,1.37
2018-11-07T18:20:31.807Z,1.50
2018-11-07T18:23:01.124Z,3.07
2018-11-07T18:25:29.638Z,3.17
2018-11-07T18:27:58.542Z,3.57
2018-11-07T18:30:27.091Z,5.08
2018-11-07T18:32:55.596Z,3.93
2018-11-07T18:35:24.173Z,1.03
2018-11-07T18:37:52.615Z,3.97
2018-11-07T18:40:21.298Z,3.20
2018-11-07T18:42:50.094Z,3.57
2018-11-07T18:45:18.549Z,4.43
2018-11-07T18:47:47.465Z,3.10
2018-11-07T18:50:17.520Z,4.97
2018-11-07T18:52:46.327Z,1.40
2018-11-07T18:55:15.740Z,2.63
2018-11-07T18:57:44.876Z,7.67
2018-11-07T19:00:15.930Z,1.93
2018-11-07T19:02:45.015Z,4.33
2018-11-07T19:05:13.549Z,2.77
2018-11-07T19:07:42.287Z,1.73
2018-11-07T19:10:12.610Z,3.10
2018-11-07T19:12:41.168Z,2.23
2018-11-07T19:15:11.435Z,3.10
2018-11-07T19:17:42.166Z,2.90
2018-11-07T19:20:11.840Z,7.70
2018-11-07T19:22:40.356Z,2.23
2018-11-07T19:25:10.745Z,3.27
2018-11-07T19:27:39.372Z,3.23
2018-11-07T19:30:09.102Z,1.43
2018-11-07T19:32:37.749Z,2.90
2018-11-07T19:35:06.977Z,4.43
2018-11-07T19:37:35.567Z,3.53
2018-11-07T19:40:04.820Z,2.37
2018-11-07T19:42:33.384Z,2.77
2018-11-07T19:45:01.975Z,3.90
2018-11-07T19:47:30.504Z,3.90
2018-11-07T19:49:59.015Z,6.27
2018-11-07T19:52:27.733Z,1.87
2018-11-07T19:54:56.393Z,4.87
2018-11-07T19:57:25.803Z,2.33
2018-11-07T19:59:54.327Z,2.13
2018-11-07T20:02:22.992Z,1.70
2018-11-07T20:04:51.520Z,5.90
2018-11-07T20:07:20.032Z,1.83
2018-11-07T20:09:48.540Z,5.53
2018-11-07T20:12:17.031Z,2.63
2018-11-07T20:14:45.600Z,3.00
2018-11-07T20:17:14.180Z,2.77
2018-11-07T20:19:42.708Z,2.30
2018-11-07T20:22:11.252Z,2.17
2018-11-07T20:24:39.798Z,4.23
2018-11-07T20:27:08.295Z,2.83
2018-11-07T20:29:36.813Z,4.77
2018-11-07T20:32:05.647Z,2.70
2018-11-07T20:34:34.191Z,2.47
2018-11-07T20:37:03.551Z,5.43
2018-11-07T20:39:32.056Z,3.73
2018-11-07T20:42:00.863Z,2.17
2018-11-07T20:44:29.410Z,3.17
2018-11-07T20:46:57.967Z,1.80
2018-11-07T20:49:27.978Z,1.50
2018-11-07T20:51:56.765Z,2.40
2018-11-07T20:54:25.578Z,1.73
2018-11-07T20:56:54.196Z,2.20
2018-11-07T20:59:22.738Z,6.43
2018-11-07T21:01:51.284Z,5.50
2018-11-07T21:04:19.764Z,9.97
2018-11-07T21:06:48.336Z,6.00
2018-11-07T21:09:17.093Z,10.70
2018-11-07T21:11:45.795Z,8.63
2018-11-07T21:14:14.350Z,3.07
2018-11-07T21:16:42.928Z,3.00
2018-11-07T21:19:11.777Z,3.20
2018-11-07T21:21:40.390Z,5.67
2018-11-07T21:24:08.883Z,1.90
2018-11-07T21:26:37.644Z,6.03
2018-11-07T21:29:06.597Z,1.77
2018-11-07T21:31:35.282Z,7.33
2018-11-07T21:34:04.233Z,3.80
2018-11-07T21:36:32.768Z,3.17
2018-11-07T21:39:01.276Z,2.77
2018-11-07T21:41:29.833Z,2.43
2018-11-07T21:43:58.516Z,1.73
2018-11-07T21:46:27.099Z,1.73
2018-11-07T21:48:55.660Z,1.90
2018-11-07T21:51:24.185Z,1.47
2018-11-07T21:53:53.035Z,2.27
2018-11-07T21:56:21.820Z,2.60
2018-11-07T21:58:50.364Z,1.87
2018-11-07T22:01:18.900Z,2.43
2018-11-07T22:03:47.438Z,1.57
2018-11-07T22:06:15.975Z,1.80
2018-11-07T22:08:44.488Z,5.87
2018-11-07T22:11:13.047Z,1.60
2018-11-07T22:13:41.530Z,3.40
2018-11-07T22:16:10.036Z,3.60
2018-11-07T22:18:38.525Z,2.20
2018-11-07T22:21:07.117Z,3.53
2018-11-07T22:23:35.616Z,1.53
2018-11-07T22:26:04.538Z,3.13
2018-11-07T22:28:33.041Z,3.70
2018-11-07T22:31:01.603Z,4.20
2018-11-07T22:33:30.135Z,1.80
2018-11-07T22:35:58.627Z,1.50
2018-11-07T22:38:27.151Z,1.30
2018-11-07T22:40:55.631Z,1.77
2018-11-07T22:43:24.157Z,2.43
2018-11-07T22:45:52.669Z,1.83
2018-11-07T22:48:21.174Z,1.20
2018-11-07T22:50:49.687Z,1.57
2018-11-07T22:53:18.187Z,1.63
2018-11-07T22:55:46.679Z,1.10
2018-11-07T22:58:15.191Z,2.03
2018-11-07T23:00:49.103Z,2.17
2018-11-07T23:03:17.636Z,1.73
2018-11-07T23:05:46.150Z,1.03
2018-11-07T23:08:14.675Z,1.73
2018-11-07T23:10:43.151Z,1.40
2018-11-07T23:13:11.700Z,3.43
2018-11-07T23:15:47.046Z,2.33
2018-11-07T23:18:16.181Z,1.70
2018-11-07T23:20:44.827Z,1.93
2018-11-07T23:23:13.490Z,4.80
2018-11-07T23:25:41.989Z,5.37
2018-11-07T23:28:10.480Z,2.53
2018-11-07T23:30:39.004Z,2.00
2018-11-07T23:33:07.577Z,2.13
2018-11-07T23:35:36.172Z,2.80
2018-11-07T23:38:04.664Z,1.73
2018-11-07T23:40:33.174Z,1.50
2018-11-07T23:43:01.731Z,1.43
2018-11-07T23:45:30.295Z,1.27
2018-11-07T23:47:58.811Z,3.37
2018-11-07T23:50:27.296Z,1.77
2018-11-07T23:52:55.781Z,2.60
2018-11-07T23:55:24.538Z,1.53
2018-11-07T23:57:53.662Z,4.60
